Time;durP1;ratioP1;P1;durP2;ratioP2;P2;SDS_P1;SDS_P2;PMS_P1;PMS_P2;Temp;Humidity;BMP_temperature;BMP_pressure;BME280_temperature;BME280_humidity;BME280_pressure;Samples;Min_cycle;Max_cycle;Signal;HPM_P1;HPM_P2
2021/09/04 00:01:06;;;;;;;4.10;3.70;;;12.10;99.90;;;;;;477343;248;28769;-70
2021/09/04 00:03:07;;;;;;;5.90;4.03;;;12.10;99.90;;;;;;476487;244;28480;-69
2021/09/04 00:05:08;;;;;;;4.30;3.90;;;12.10;99.90;;;;;;477044;244;28339;-69
2021/09/04 00:07:09;;;;;;;3.87;3.57;;;12.10;99.90;;;;;;477364;245;28227;-70
2021/09/04 00:09:11;;;;;;;4.57;4.17;;;12.00;99.90;;;;;;471902;248;29399;-70
2021/09/04 00:11:12;;;;;;;5.37;3.93;;;12.10;99.90;;;;;;476263;244;29212;-70
2021/09/04 00:13:13;;;;;;;4.70;4.17;;;12.10;99.90;;;;;;478433;244;29010;-70
2021/09/04 00:15:14;;;;;;;5.10;3.80;;;12.10;99.90;;;;;;477427;248;28217;-70
2021/09/04 00:17:16;;;;;;;3.67;3.37;;;12.10;99.90;;;;;;475905;244;28187;-70
2021/09/04 00:19:17;;;;;;;4.20;3.80;;;12.00;99.90;;;;;;476097;248;28850;-69
2021/09/04 00:21:18;;;;;;;4.30;3.90;;;12.00;99.90;;;;;;477410;244;28093;-70
2021/09/04 00:23:20;;;;;;;3.93;3.63;;;11.90;99.90;;;;;;476391;244;28224;-70
2021/09/04 00:25:21;;;;;;;3.80;3.50;;;11.90;99.90;;;;;;474271;248;28423;-70
2021/09/04 00:27:22;;;;;;;5.13;3.70;;;11.90;99.90;;;;;;478675;244;28307;-70
2021/09/04 00:29:23;;;;;;;3.90;3.60;;;12.00;99.90;;;;;;474258;244;28422;-70
2021/09/04 00:31:25;;;;;;;3.97;3.67;;;12.00;99.90;;;;;;475709;248;28741;-69
2021/09/04 00:33:27;;;;;;;4.23;3.80;;;11.90;99.90;;;;;;477887;244;28509;-70
2021/09/04 00:35:27;;;;;;;3.93;3.50;;;11.90;99.90;;;;;;477106;247;29740;-70
2021/09/04 00:37:28;;;;;;;3.77;3.47;;;11.90;99.90;;;;;;478005;244;28489;-69
2021/09/04 00:39:30;;;;;;;3.70;3.40;;;11.90;99.90;;;;;;474877;244;28476;-69
2021/09/04 00:41:34;;;;;;;4.03;3.63;;;12.00;99.90;;;;;;478463;244;28424;-70
2021/09/04 00:43:32;;;;;;;4.83;4.17;;;11.90;99.90;;;;;;477614;247;28337;-69
2021/09/04 00:45:33;;;;;;;4.50;4.10;;;11.90;99.90;;;;;;475969;243;28369;-70
2021/09/04 00:47:35;;;;;;;3.63;3.33;;;11.80;99.90;;;;;;478647;244;28333;-69
2021/09/04 00:49:36;;;;;;;3.90;3.50;;;11.80;99.90;;;;;;475114;248;28089;-70
2021/09/04 00:51:37;;;;;;;4.33;3.93;;;11.80;99.90;;;;;;477385;244;28459;-69
2021/09/04 00:53:38;;;;;;;4.30;3.90;;;11.70;99.90;;;;;;476720;248;28360;-70
2021/09/04 00:55:40;;;;;;;4.30;3.90;;;11.70;99.90;;;;;;475356;244;28946;-69
2021/09/04 00:57:41;;;;;;;3.73;3.43;;;11.70;99.90;;;;;;477459;247;28429;-70
2021/09/04 00:59:42;;;;;;;4.50;4.00;;;11.70;99.90;;;;;;474799;244;28801;-69
2021/09/04 01:01:43;;;;;;;3.70;3.40;;;11.70;99.90;;;;;;477395;244;28420;-70
2021/09/04 01:03:45;;;;;;;4.10;3.60;;;11.80;99.90;;;;;;475650;248;28253;-69
2021/09/04 01:05:47;;;;;;;5.40;4.40;;;11.70;99.90;;;;;;465536;248;28540;-70
2021/09/04 01:07:48;;;;;;;4.73;3.90;;;11.80;99.90;;;;;;480522;247;28132;-69
2021/09/04 01:09:50;;;;;;;3.77;3.40;;;11.70;99.90;;;;;;480426;246;28550;-69
2021/09/04 01:11:51;;;;;;;4.20;3.80;;;11.70;99.90;;;;;;480512;245;28871;-70
2021/09/04 01:13:52;;;;;;;4.53;4.10;;;11.70;99.90;;;;;;475507;244;28713;-70
2021/09/04 01:15:53;;;;;;;3.80;3.50;;;11.70;99.90;;;;;;476445;244;28653;-69
2021/09/04 01:17:55;;;;;;;3.83;3.50;;;11.70;99.90;;;;;;478323;244;28150;-69
2021/09/04 01:19:56;;;;;;;4.10;3.70;;;11.70;99.90;;;;;;477102;248;27965;-70
2021/09/04 01:21:57;;;;;;;5.83;3.80;;;11.70;99.90;;;;;;478501;244;28546;-70
2021/09/04 01:24:00;;;;;;;4.47;4.07;;;11.70;99.90;;;;;;478032;248;28454;-70
2021/09/04 01:26:00;;;;;;;4.27;3.87;;;11.60;99.90;;;;;;478421;244;28207;-70
2021/09/04 01:28:01;;;;;;;4.37;3.97;;;11.60;99.90;;;;;;474654;248;28338;-70
2021/09/04 01:30:02;;;;;;;4.07;3.67;;;11.60;99.90;;;;;;475876;244;28273;-70
2021/09/04 01:32:03;;;;;;;4.80;4.13;;;11.60;99.90;;;;;;476533;243;28285;-70
2021/09/04 01:34:05;;;;;;;3.87;3.47;;;11.50;99.90;;;;;;474036;244;28345;-70
2021/09/04 01:36:06;;;;;;;4.57;4.00;;;11.50;99.90;;;;;;475037;248;28927;-70
2021/09/04 01:38:07;;;;;;;3.87;3.57;;;11.50;99.90;;;;;;472851;245;28540;-70
2021/09/04 01:40:08;;;;;;;7.10;3.43;;;11.50;99.90;;;;;;473681;250;28707;-69
2021/09/04 01:42:10;;;;;;;4.17;3.77;;;11.50;99.90;;;;;;470976;247;28280;-70
2021/09/04 01:44:11;;;;;;;5.50;3.50;;;11.40;99.90;;;;;;461310;251;28258;-70
2021/09/04 01:46:12;;;;;;;5.37;3.70;;;11.40;99.90;;;;;;461460;256;28378;-70
2021/09/04 01:48:13;;;;;;;4.43;4.03;;;11.50;99.90;;;;;;472443;249;28267;-69
2021/09/04 01:50:15;;;;;;;4.20;3.80;;;11.50;99.90;;;;;;475410;246;28325;-69
2021/09/04 01:52:16;;;;;;;4.13;3.73;;;11.50;99.90;;;;;;462361;251;28405;-69
2021/09/04 01:54:17;;;;;;;5.70;3.70;;;11.50;99.90;;;;;;472405;247;28376;-69
2021/09/04 01:56:18;;;;;;;4.73;3.70;;;11.40;99.90;;;;;;465301;251;28491;-69
2021/09/04 01:58:20;;;;;;;4.27;3.87;;;11.40;99.90;;;;;;469185;248;28515;-69
2021/09/04 02:00:21;;;;;;;4.80;4.10;;;11.40;99.90;;;;;;469083;247;29029;-69
2021/09/04 02:02:22;;;;;;;4.50;4.10;;;11.30;99.90;;;;;;465569;254;28846;-70
2021/09/04 02:04:23;;;;;;;3.90;3.50;;;11.30;99.90;;;;;;460714;252;28674;-70
2021/09/04 02:06:25;;;;;;;4.30;3.77;;;11.30;99.90;;;;;;470374;247;28332;-70
2021/09/04 02:08:29;;;;;;;4.27;3.87;;;11.30;99.90;;;;;;475506;244;28131;-70
2021/09/04 02:10:27;;;;;;;5.50;4.17;;;11.30;99.90;;;;;;475634;247;28131;-70
2021/09/04 02:12:28;;;;;;;3.53;3.23;;;11.30;99.90;;;;;;461860;251;28366;-70
2021/09/04 02:14:30;;;;;;;3.83;3.40;;;11.30;99.90;;;;;;464589;252;28649;-70
2021/09/04 02:16:31;;;;;;;4.30;3.90;;;11.30;99.90;;;;;;464375;256;28251;-70
2021/09/04 02:18:33;;;;;;;4.47;3.77;;;11.30;99.90;;;;;;467262;248;28249;-70
2021/09/04 02:20:33;;;;;;;4.53;3.67;;;11.30;99.90;;;;;;463904;251;28761;-70
2021/09/04 02:22:35;;;;;;;5.57;3.97;;;11.30;99.90;;;;;;464748;253;28711;-69
2021/09/04 02:24:36;;;;;;;4.50;4.10;;;11.30;99.90;;;;;;467041;248;28735;-69
2021/09/04 02:26:37;;;;;;;4.17;3.83;;;11.30;99.90;;;;;;477336;248;28845;-70
2021/09/04 02:28:38;;;;;;;3.93;3.53;;;11.20;99.90;;;;;;476215;244;28779;-69
2021/09/04 02:30:40;;;;;;;4.87;4.17;;;11.20;99.90;;;;;;477467;248;28211;-69
2021/09/04 02:32:41;;;;;;;4.30;3.90;;;11.20;99.90;;;;;;461117;251;28196;-70
2021/09/04 02:34:42;;;;;;;3.77;3.47;;;11.20;99.90;;;;;;473039;249;28478;-70
2021/09/04 02:36:43;;;;;;;4.23;3.83;;;11.20;99.90;;;;;;461546;253;28137;-70
2021/09/04 02:38:45;;;;;;;4.20;3.80;;;11.20;99.90;;;;;;472048;247;28285;-69
2021/09/04 02:40:46;;;;;;;4.70;4.00;;;11.10;99.90;;;;;;478693;247;28227;-69
2021/09/04 02:42:47;;;;;;;4.03;3.63;;;11.10;99.90;;;;;;472324;247;28157;-70
2021/09/04 02:44:48;;;;;;;4.13;3.73;;;11.10;99.90;;;;;;471904;248;28252;-70
2021/09/04 02:46:50;;;;;;;4.53;4.07;;;11.10;99.90;;;;;;465336;251;28235;-70
2021/09/04 02:48:51;;;;;;;3.90;3.50;;;11.10;99.90;;;;;;472939;247;28763;-69
2021/09/04 02:50:52;;;;;;;3.97;3.67;;;11.10;99.90;;;;;;464573;251;28982;-69
2021/09/04 02:52:53;;;;;;;3.90;3.60;;;11.10;99.90;;;;;;468733;251;28665;-70
2021/09/04 02:54:55;;;;;;;4.03;3.73;;;11.10;99.90;;;;;;475237;244;28455;-69
2021/09/04 02:56:56;;;;;;;4.23;3.83;;;11.10;99.90;;;;;;464494;256;28134;-70
2021/09/04 02:58:57;;;;;;;7.13;3.67;;;11.10;99.90;;;;;;470376;248;28468;-69
2021/09/04 03:00:59;;;;;;;4.53;3.83;;;11.00;99.90;;;;;;465073;251;28295;-70
2021/09/04 03:03:00;;;;;;;4.17;3.70;;;11.00;99.90;;;;;;464047;253;28158;-70
2021/09/04 03:05:01;;;;;;;3.90;3.50;;;11.00;99.90;;;;;;471317;247;28238;-70
2021/09/04 03:07:02;;;;;;;3.33;3.07;;;11.00;99.90;;;;;;468691;248;28274;-70
2021/09/04 03:09:03;;;;;;;3.97;3.60;;;11.00;99.90;;;;;;476738;245;28088;-69
2021/09/04 03:11:05;;;;;;;4.60;3.70;;;11.00;99.90;;;;;;477269;248;28101;-70
2021/09/04 03:13:06;;;;;;;3.87;3.43;;;11.00;99.90;;;;;;475458;243;28521;-69
2021/09/04 03:15:07;;;;;;;4.20;3.80;;;10.90;99.90;;;;;;475830;248;28824;-69
2021/09/04 03:17:08;;;;;;;4.00;3.63;;;10.90;99.90;;;;;;469824;245;28951;-70
2021/09/04 03:19:10;;;;;;;3.97;3.43;;;10.90;99.90;;;;;;465334;251;28619;-70
2021/09/04 03:21:11;;;;;;;4.10;3.70;;;10.90;99.90;;;;;;460456;252;28087;-70
2021/09/04 03:23:12;;;;;;;3.60;3.30;;;10.90;99.90;;;;;;462776;255;28067;-69
2021/09/04 03:25:14;;;;;;;3.77;3.40;;;10.90;99.90;;;;;;462430;251;28068;-69
2021/09/04 03:27:15;;;;;;;4.50;3.80;;;10.90;99.90;;;;;;462126;251;28256;-69
2021/09/04 03:29:17;;;;;;;3.70;3.40;;;10.90;99.90;;;;;;465274;251;28292;-69
2021/09/04 03:31:17;;;;;;;4.53;4.13;;;10.90;99.90;;;;;;459924;254;28275;-70
2021/09/04 03:33:18;;;;;;;4.83;3.40;;;10.90;99.90;;;;;;472651;247;27984;-69
2021/09/04 03:35:20;;;;;;;4.03;3.63;;;10.80;99.90;;;;;;469022;251;28237;-69
2021/09/04 03:37:21;;;;;;;3.70;3.40;;;10.80;99.90;;;;;;472980;247;28012;-70
2021/09/04 03:39:22;;;;;;;6.50;3.50;;;10.80;99.90;;;;;;471183;247;28632;-69
2021/09/04 03:41:23;;;;;;;3.57;3.27;;;10.80;99.90;;;;;;473340;249;28520;-69
2021/09/04 03:43:25;;;;;;;6.17;3.97;;;10.80;99.90;;;;;;460863;252;28884;-70
2021/09/04 03:45:26;;;;;;;3.73;3.43;;;10.70;99.90;;;;;;463434;256;28198;-70
2021/09/04 03:47:27;;;;;;;4.30;3.77;;;10.80;99.90;;;;;;462946;251;27920;-69
2021/09/04 03:49:28;;;;;;;3.40;3.10;;;10.80;99.90;;;;;;470941;251;28119;-69
2021/09/04 03:51:30;;;;;;;3.97;3.60;;;10.70;99.90;;;;;;464571;254;28033;-69
2021/09/04 03:53:31;;;;;;;3.60;3.30;;;10.70;99.90;;;;;;464638;254;28110;-70
2021/09/04 03:55:32;;;;;;;7.60;3.57;;;10.70;99.90;;;;;;470559;247;28273;-70
2021/09/04 03:57:33;;;;;;;4.10;3.67;;;10.70;99.90;;;;;;470063;250;27993;-69
2021/09/04 03:59:35;;;;;;;3.30;2.90;;;10.70;99.90;;;;;;472906;247;28172;-70
2021/09/04 04:01:36;;;;;;;3.63;3.33;;;10.70;99.90;;;;;;473136;250;28276;-70
2021/09/04 04:03:37;;;;;;;3.50;3.20;;;10.70;99.90;;;;;;472931;250;28727;-69
2021/09/04 04:05:38;;;;;;;3.73;3.37;;;10.60;99.90;;;;;;459844;256;28470;-69
2021/09/04 04:07:40;;;;;;;3.90;3.60;;;10.60;99.90;;;;;;460644;250;30511;-70
2021/09/04 04:09:41;;;;;;;3.80;3.50;;;10.60;99.90;;;;;;465899;250;28011;-70
2021/09/04 04:11:42;;;;;;;3.13;2.83;;;10.60;99.90;;;;;;465294;250;28063;-70
2021/09/04 04:13:43;;;;;;;5.30;3.80;;;10.60;99.90;;;;;;466312;254;27879;-69
2021/09/04 04:15:45;;;;;;;3.67;3.30;;;10.50;99.90;;;;;;463744;250;28165;-69
2021/09/04 04:17:46;;;;;;;3.30;3.10;;;10.50;99.90;;;;;;466054;250;27686;-69
2021/09/04 04:19:47;;;;;;;3.53;3.20;;;10.50;99.90;;;;;;464421;250;27969;-70
2021/09/04 04:21:48;;;;;;;3.10;2.80;;;10.50;99.90;;;;;;463959;255;27883;-69
2021/09/04 04:23:50;;;;;;;3.70;3.40;;;10.60;99.90;;;;;;466689;250;27927;-69
2021/09/04 04:25:51;;;;;;;3.47;3.17;;;10.50;99.90;;;;;;465598;255;28186;-70
2021/09/04 04:27:52;;;;;;;4.50;4.10;;;10.60;99.90;;;;;;462495;251;29096;-70
2021/09/04 04:29:53;;;;;;;3.83;3.43;;;10.60;99.90;;;;;;461256;251;28246;-70
2021/09/04 04:31:55;;;;;;;4.00;3.60;;;10.60;99.90;;;;;;462029;251;28749;-69
2021/09/04 04:33:56;;;;;;;3.60;3.30;;;10.60;99.90;;;;;;465369;251;28658;-70
2021/09/04 04:35:57;;;;;;;5.50;3.87;;;10.60;99.90;;;;;;465524;254;28141;-71
2021/09/04 04:37:59;;;;;;;4.17;3.77;;;10.50;99.90;;;;;;463755;251;28105;-69
2021/09/04 04:40:00;;;;;;;4.27;3.87;;;10.50;99.90;;;;;;461777;251;28047;-70
2021/09/04 04:42:01;;;;;;;4.27;3.87;;;10.50;99.90;;;;;;464395;256;27904;-70
2021/09/04 04:44:02;;;;;;;4.13;3.73;;;10.50;99.90;;;;;;463336;251;28041;-70
2021/09/04 04:46:04;;;;;;;3.60;3.30;;;10.50;99.90;;;;;;461582;251;28180;-69
2021/09/04 04:48:05;;;;;;;3.90;3.60;;;10.50;99.90;;;;;;464429;251;28510;-69
2021/09/04 04:50:06;;;;;;;4.23;3.83;;;10.50;99.90;;;;;;464872;253;28167;-70
2021/09/04 04:52:07;;;;;;;4.63;3.90;;;10.50;99.90;;;;;;461229;251;28571;-70
2021/09/04 04:54:09;;;;;;;4.23;3.63;;;10.40;99.90;;;;;;464849;253;28568;-69
2021/09/04 04:56:10;;;;;;;4.17;3.77;;;10.50;99.90;;;;;;463929;251;28837;-69
2021/09/04 04:58:11;;;;;;;4.20;3.80;;;10.50;99.90;;;;;;464838;252;28712;-70
2021/09/04 05:00:12;;;;;;;4.10;3.70;;;10.50;99.90;;;;;;462009;251;28011;-69
2021/09/04 05:02:14;;;;;;;4.27;3.87;;;10.40;99.90;;;;;;464894;253;28068;-69
2021/09/04 05:04:15;;;;;;;3.77;3.37;;;10.50;99.90;;;;;;463683;251;28002;-70
2021/09/04 05:06:16;;;;;;;4.30;3.90;;;10.50;99.90;;;;;;464631;251;28021;-70
2021/09/04 05:08:17;;;;;;;3.57;3.27;;;10.50;99.90;;;;;;464145;253;28195;-70
2021/09/04 05:10:19;;;;;;;3.40;3.07;;;10.60;99.90;;;;;;464817;251;28184;-69
2021/09/04 05:12:20;;;;;;;5.90;3.90;;;10.50;99.90;;;;;;478144;243;28202;-70
2021/09/04 05:14:21;;;;;;;4.23;3.83;;;10.50;99.90;;;;;;477912;244;28579;-69
2021/09/04 05:16:22;;;;;;;4.33;3.83;;;10.60;99.90;;;;;;477058;247;28126;-70
2021/09/04 05:18:24;;;;;;;4.00;3.60;;;10.60;99.90;;;;;;477774;244;28236;-70
2021/09/04 05:20:25;;;;;;;4.63;3.90;;;10.60;99.90;;;;;;466005;248;28533;-70
2021/09/04 05:22:26;;;;;;;3.53;3.23;;;10.60;99.90;;;;;;464865;254;28646;-69
2021/09/04 05:24:27;;;;;;;4.50;3.43;;;10.60;99.90;;;;;;461247;251;28125;-70
2021/09/04 05:26:29;;;;;;;4.70;3.83;;;10.50;99.90;;;;;;463987;251;28087;-69
2021/09/04 05:28:30;;;;;;;3.73;3.30;;;10.50;99.90;;;;;;464891;253;28346;-70
2021/09/04 05:30:31;;;;;;;4.03;3.63;;;10.60;99.90;;;;;;463627;251;28128;-70
2021/09/04 05:32:32;;;;;;;5.20;3.70;;;10.60;99.90;;;;;;464152;251;28057;-69
2021/09/04 05:34:34;;;;;;;4.30;3.90;;;10.60;99.90;;;;;;464172;251;28216;-69
2021/09/04 05:36:35;;;;;;;5.20;4.10;;;10.60;99.90;;;;;;462960;253;28036;-69
2021/09/04 05:38:36;;;;;;;4.27;3.80;;;10.60;99.90;;;;;;462316;251;28406;-70
2021/09/04 05:40:37;;;;;;;5.60;4.23;;;10.60;99.90;;;;;;464667;251;28633;-70
2021/09/04 05:42:39;;;;;;;4.80;4.30;;;10.60;99.90;;;;;;463941;251;28877;-70
2021/09/04 05:44:40;;;;;;;4.30;3.90;;;10.60;99.90;;;;;;464386;256;28661;-70
2021/09/04 05:46:41;;;;;;;4.30;3.90;;;10.70;99.90;;;;;;463886;249;28486;-70
2021/09/04 05:48:42;;;;;;;4.70;4.17;;;10.70;99.90;;;;;;463056;251;28331;-70
2021/09/04 05:50:44;;;;;;;4.20;3.80;;;10.80;99.90;;;;;;464697;251;28236;-69
2021/09/04 05:52:45;;;;;;;4.43;3.90;;;10.80;99.90;;;;;;465773;251;28031;-70
2021/09/04 05:54:46;;;;;;;4.27;3.87;;;10.80;99.90;;;;;;460768;253;28078;-70
2021/09/04 05:56:47;;;;;;;4.13;3.50;;;10.90;99.90;;;;;;463484;251;28202;-70
2021/09/04 05:58:49;;;;;;;5.17;3.60;;;10.90;99.90;;;;;;461585;251;28167;-70
2021/09/04 06:00:50;;;;;;;4.30;3.90;;;11.00;99.90;;;;;;461300;253;28153;-69
2021/09/04 06:02:51;;;;;;;4.23;3.83;;;11.00;99.90;;;;;;461632;256;28482;-69
2021/09/04 06:04:52;;;;;;;4.00;3.70;;;11.10;99.90;;;;;;470222;251;28448;-69
2021/09/04 06:06:54;;;;;;;5.67;4.03;;;11.10;99.90;;;;;;462186;255;28825;-70
2021/09/04 06:08:57;;;;;;;4.93;4.43;;;11.10;99.90;;;;;;470256;251;28758;-70
2021/09/04 06:10:56;;;;;;;5.57;4.67;;;11.20;99.90;;;;;;463276;255;28800;-69
2021/09/04 06:12:57;;;;;;;4.07;3.67;;;11.30;99.90;;;;;;469949;250;28526;-69
2021/09/04 06:14:59;;;;;;;5.63;4.70;;;11.30;99.90;;;;;;461867;250;28186;-70
2021/09/04 06:17:00;;;;;;;7.03;5.70;;;11.40;99.90;;;;;;462802;255;28090;-69
2021/09/04 06:19:01;;;;;;;7.93;5.47;;;11.40;99.90;;;;;;469666;251;28310;-70
2021/09/04 06:21:02;;;;;;;9.73;6.93;;;11.40;99.90;;;;;;469747;251;28144;-69
2021/09/04 06:23:04;;;;;;;10.20;7.37;;;11.40;99.90;;;;;;469831;247;28735;-70
2021/09/04 06:25:05;;;;;;;12.67;7.13;;;11.40;99.90;;;;;;463431;252;28953;-70
2021/09/04 06:27:06;;;;;;;13.13;7.53;;;11.50;99.90;;;;;;463359;255;28201;-70
2021/09/04 06:29:07;;;;;;;10.47;7.20;;;11.50;99.90;;;;;;462112;257;28168;-70
2021/09/04 06:31:09;;;;;;;11.47;6.60;;;11.50;99.90;;;;;;470324;252;28537;-70
2021/09/04 06:33:10;;;;;;;9.83;7.00;;;11.50;99.90;;;;;;463412;255;28429;-70
2021/09/04 06:35:11;;;;;;;10.80;7.33;;;11.60;99.90;;;;;;470247;251;28181;-70
2021/09/04 06:37:12;;;;;;;11.10;8.17;;;11.70;99.90;;;;;;470260;250;28661;-69
2021/09/04 06:39:14;;;;;;;9.50;7.47;;;11.70;99.90;;;;;;470156;251;28487;-70
2021/09/04 06:41:15;;;;;;;14.93;8.20;;;11.80;99.90;;;;;;463372;253;28760;-70
2021/09/04 06:43:16;;;;;;;10.23;8.30;;;11.80;99.90;;;;;;462514;257;29045;-70
2021/09/04 06:45:17;;;;;;;11.03;7.80;;;11.90;99.90;;;;;;463385;255;28809;-70
2021/09/04 06:47:19;;;;;;;11.83;7.50;;;12.00;99.90;;;;;;470250;251;28242;-70
2021/09/04 06:49:20;;;;;;;10.00;7.07;;;12.00;99.90;;;;;;461327;250;28327;-70
2021/09/04 06:51:21;;;;;;;11.77;7.80;;;12.10;99.90;;;;;;462106;256;28193;-70
2021/09/04 06:53:24;;;;;;;12.77;8.23;;;;;;;;;;463420;255;28197;-69
2021/09/04 06:55:25;;;;;;;10.00;7.60;;;12.20;99.90;;;;;;463350;256;27509;-69
2021/09/04 06:57:26;;;;;;;11.43;7.70;;;12.30;99.90;;;;;;470181;251;28143;-69
2021/09/04 06:59:27;;;;;;;11.60;8.17;;;12.30;99.90;;;;;;462479;257;28444;-70
2021/09/04 07:01:29;;;;;;;12.60;8.93;;;12.40;99.90;;;;;;463415;255;28852;-70
2021/09/04 07:03:30;;;;;;;9.83;7.43;;;12.50;99.90;;;;;;470181;251;28921;-69
2021/09/04 07:05:31;;;;;;;9.33;6.90;;;12.50;99.90;;;;;;462145;254;28598;-70
2021/09/04 07:07:32;;;;;;;10.03;7.23;;;12.60;99.90;;;;;;463375;255;28400;-70
2021/09/04 07:09:34;;;;;;;10.67;7.67;;;12.70;99.90;;;;;;470250;251;30001;-69
2021/09/04 07:11:35;;;;;;;10.20;7.00;;;12.80;99.90;;;;;;470217;250;29357;-72
2021/09/04 07:13:36;;;;;;;10.40;7.67;;;13.00;99.90;;;;;;470236;250;29106;-71
2021/09/04 07:15:39;;;;;;;10.97;8.17;;;13.00;99.90;;;;;;462149;252;28589;-70
2021/09/04 07:17:40;;;;;;;8.90;7.00;;;;;;;;;;469607;252;28806;-70
2021/09/04 07:19:41;;;;;;;11.10;7.50;;;13.10;99.90;;;;;;460182;252;27006;-70
2021/09/04 07:21:42;;;;;;;8.87;7.10;;;13.20;99.90;;;;;;461701;257;28634;-70
2021/09/04 07:23:44;;;;;;;9.17;7.10;;;13.40;99.90;;;;;;463504;256;28717;-70
2021/09/04 07:25:45;;;;;;;8.17;6.17;;;13.40;99.90;;;;;;463268;254;28290;-69
2021/09/04 07:27:47;;;;;;;8.00;6.13;;;13.50;99.90;;;;;;461405;256;28483;-70
2021/09/04 07:29:47;;;;;;;7.10;6.40;;;13.70;99.90;;;;;;466109;254;28295;-70
2021/09/04 07:31:50;;;;;;;8.10;6.40;;;;;;;;;;468882;248;28332;-70
2021/09/04 07:33:51;;;;;;;8.03;6.80;;;14.20;99.90;;;;;;466063;254;27053;-71
2021/09/04 07:35:52;;;;;;;9.20;7.17;;;14.60;99.90;;;;;;468939;251;29449;-71
2021/09/04 07:37:54;;;;;;;8.77;6.83;;;15.00;99.90;;;;;;461956;255;28264;-70
2021/09/04 07:39:55;;;;;;;8.03;5.90;;;15.50;99.90;;;;;;465867;255;28495;-72
2021/09/04 07:42:04;;;;;;;10.00;5.93;;;15.80;99.90;;;;;;464372;251;28508;-70
2021/09/04 07:44:00;;;;;;;7.13;5.80;;;16.20;99.90;;;;;;470726;251;28940;-72
2021/09/04 07:46:01;;;;;;;8.00;6.33;;;16.50;99.90;;;;;;482773;246;28901;-72
2021/09/04 07:48:02;;;;;;;10.10;7.07;;;16.50;99.90;;;;;;471437;250;29494;-72
2021/09/04 07:50:03;;;;;;;9.57;6.47;;;16.50;99.90;;;;;;464401;254;28430;-70
2021/09/04 07:52:05;;;;;;;7.63;6.77;;;16.60;99.90;;;;;;469189;251;28803;-71
2021/09/04 07:54:06;;;;;;;9.53;5.90;;;16.80;99.90;;;;;;477334;248;29039;-71
2021/09/04 07:56:07;;;;;;;7.93;5.93;;;16.90;99.90;;;;;;472204;250;29419;-71
2021/09/04 07:58:08;;;;;;;6.40;5.67;;;17.00;99.90;;;;;;472424;249;29396;-71
2021/09/04 08:00:10;;;;;;;8.70;5.40;;;16.90;99.90;;;;;;472405;247;29500;-71
2021/09/04 08:02:11;;;;;;;7.13;5.73;;;16.90;99.90;;;;;;479814;246;29113;-72
2021/09/04 08:04:14;;;;;;;7.43;6.47;;;17.20;99.90;;;;;;474715;250;28890;-71
2021/09/04 08:06:13;;;;;;;6.47;5.73;;;17.30;99.90;;;;;;479480;247;28911;-70
2021/09/04 08:08:15;;;;;;;8.27;6.13;;;17.40;99.90;;;;;;474340;249;28884;-69
2021/09/04 08:10:16;;;;;;;8.03;6.17;;;17.40;99.90;;;;;;489261;243;28929;-71
2021/09/04 08:12:17;;;;;;;7.63;5.83;;;17.50;99.90;;;;;;489352;241;28891;-72
2021/09/04 08:14:18;;;;;;;5.90;5.30;;;17.40;99.90;;;;;;489234;242;29003;-71
2021/09/04 08:16:20;;;;;;;5.63;4.80;;;17.60;99.90;;;;;;485536;241;28877;-72
2021/09/04 08:18:21;;;;;;;6.07;5.20;;;17.70;99.90;;;;;;478883;244;28773;-69
2021/09/04 08:20:22;;;;;;;5.63;4.70;;;17.60;99.90;;;;;;466317;252;29209;-70
2021/09/04 08:22:23;;;;;;;7.00;6.03;;;17.60;99.90;;;;;;464893;251;29526;-69
2021/09/04 08:24:25;;;;;;;5.53;5.03;;;17.70;99.90;;;;;;467727;251;29238;-70
2021/09/04 08:26:26;;;;;;;5.60;5.00;;;17.70;99.90;;;;;;481103;244;28825;-70
2021/09/04 08:28:27;;;;;;;7.03;5.33;;;17.80;99.90;;;;;;479358;244;28860;-70
2021/09/04 08:30:28;;;;;;;6.20;5.17;;;17.80;99.90;;;;;;479853;244;28909;-72
2021/09/04 08:32:30;;;;;;;5.50;5.00;;;17.80;99.90;;;;;;480624;244;28824;-71
2021/09/04 08:34:31;;;;;;;6.10;5.40;;;17.90;99.90;;;;;;482167;244;28757;-72
2021/09/04 08:36:32;;;;;;;7.07;5.57;;;18.10;99.90;;;;;;471163;252;29015;-71
2021/09/04 08:38:33;;;;;;;6.07;5.40;;;18.30;99.90;;;;;;484510;245;28944;-72
2021/09/04 08:40:35;;;;;;;6.57;5.53;;;18.10;99.90;;;;;;471157;252;28918;-71
2021/09/04 08:42:36;;;;;;;8.00;5.67;;;18.10;99.90;;;;;;484596;243;28967;-72
2021/09/04 08:44:37;;;;;;;8.60;5.23;;;18.40;99.90;;;;;;471243;252;29497;-71
2021/09/04 08:46:38;;;;;;;7.00;6.10;;;18.60;99.90;;;;;;484567;245;29314;-71
2021/09/04 08:48:40;;;;;;;6.30;5.60;;;18.50;99.90;;;;;;471260;252;29520;-71
2021/09/04 08:50:41;;;;;;;5.93;5.33;;;18.60;99.90;;;;;;484562;245;28872;-72
2021/09/04 08:52:42;;;;;;;6.70;5.70;;;18.50;99.90;;;;;;471224;252;28911;-72
2021/09/04 08:54:43;;;;;;;5.70;4.47;;;18.60;99.90;;;;;;484585;245;28909;-71
2021/09/04 08:56:45;;;;;;;5.40;4.90;;;18.40;99.90;;;;;;471253;252;29005;-71
2021/09/04 08:58:46;;;;;;;6.50;5.13;;;18.60;99.90;;;;;;484542;245;28944;-71
2021/09/04 09:00:47;;;;;;;7.53;5.23;;;18.70;99.90;;;;;;486528;244;28764;-71
2021/09/04 09:02:48;;;;;;;6.40;5.70;;;18.80;99.90;;;;;;471665;252;29275;-71
2021/09/04 09:04:50;;;;;;;6.70;5.27;;;19.00;99.90;;;;;;484581;245;28825;-71
2021/09/04 09:06:51;;;;;;;7.00;5.20;;;18.90;99.90;;;;;;471220;252;28958;-71
2021/09/04 09:08:52;;;;;;;5.30;4.80;;;18.90;99.90;;;;;;484514;245;29328;-71
2021/09/04 09:10:55;;;;;;;6.57;5.43;;;19.10;99.90;;;;;;471188;252;29376;-70
2021/09/04 09:12:55;;;;;;;5.40;4.90;;;18.90;99.90;;;;;;484454;245;29338;-72
2021/09/04 09:14:56;;;;;;;6.00;5.40;;;18.90;99.90;;;;;;471195;252;28903;-71
2021/09/04 09:16:57;;;;;;;6.50;5.13;;;19.30;99.90;;;;;;484542;245;28940;-71
2021/09/04 09:18:58;;;;;;;8.40;5.47;;;19.40;99.90;;;;;;471242;252;29033;-72
2021/09/04 09:21:00;;;;;;;7.30;5.23;;;19.40;99.90;;;;;;484558;245;28819;-71
2021/09/04 09:23:01;;;;;;;5.23;4.73;;;19.40;99.90;;;;;;471233;252;28943;-71
2021/09/04 09:25:02;;;;;;;6.67;5.47;;;19.70;99.90;;;;;;484544;245;28818;-72
2021/09/04 09:27:03;;;;;;;5.23;4.73;;;19.60;99.90;;;;;;471225;252;28931;-70
2021/09/04 09:29:05;;;;;;;6.53;5.20;;;19.40;99.90;;;;;;484533;245;28850;-71
2021/09/04 09:31:06;;;;;;;5.50;5.00;;;19.50;99.90;;;;;;471247;252;28954;-71
2021/09/04 09:33:07;;;;;;;5.60;5.00;;;19.70;99.90;;;;;;484554;245;29385;-71
2021/09/04 09:35:08;;;;;;;7.07;6.07;;;19.70;99.90;;;;;;471233;252;29467;-71
2021/09/04 09:37:10;;;;;;;7.40;5.00;;;19.60;99.90;;;;;;484514;245;29359;-71
2021/09/04 09:39:11;;;;;;;5.70;5.07;;;19.80;99.90;;;;;;471245;252;30140;-71
2021/09/04 09:41:12;;;;;;;4.77;4.27;;;20.00;99.90;;;;;;484588;245;28893;-71
2021/09/04 09:43:14;;;;;;;5.20;4.70;;;19.70;99.90;;;;;;471222;252;28952;-71
2021/09/04 09:45:15;;;;;;;4.70;4.23;;;19.50;99.90;;;;;;484557;245;28809;-72
2021/09/04 09:47:16;;;;;;;4.57;4.17;;;19.40;99.90;;;;;;471245;252;28930;-71
2021/09/04 09:49:17;;;;;;;4.67;4.17;;;19.40;99.90;;;;;;484573;245;28863;-72
2021/09/04 09:51:19;;;;;;;5.70;5.10;;;19.80;99.90;;;;;;471229;252;28926;-72
2021/09/04 09:53:20;;;;;;;5.13;4.63;;;20.20;99.90;;;;;;484464;245;28931;-69
2021/09/04 09:55:21;;;;;;;5.07;4.57;;;20.20;99.90;;;;;;471233;248;28962;-69
2021/09/04 09:57:22;;;;;;;5.80;4.53;;;20.40;99.90;;;;;;484544;245;29276;-69
2021/09/04 09:59:26;;;;;;;5.73;4.50;;;20.20;99.90;;;;;;471226;252;29487;-69
2021/09/04 10:01:25;;;;;;;6.60;4.53;;;20.00;99.90;;;;;;484447;245;29333;-70
2021/09/04 10:03:26;;;;;;;5.73;4.53;;;20.10;99.90;;;;;;471221;252;28957;-71
2021/09/04 10:05:27;;;;;;;4.40;4.00;;;20.40;99.90;;;;;;484542;245;28893;-70
2021/09/04 10:07:28;;;;;;;5.63;4.50;;;20.50;99.90;;;;;;471221;252;28925;-71
2021/09/04 10:09:30;;;;;;;4.90;4.50;;;20.70;99.90;;;;;;484552;245;28889;-72
2021/09/04 10:11:31;;;;;;;4.87;4.37;;;20.80;99.90;;;;;;471264;252;28949;-71
2021/09/04 10:13:32;;;;;;;5.70;4.63;;;20.50;99.90;;;;;;484562;245;28840;-71
2021/09/04 10:15:33;;;;;;;5.70;4.90;;;20.60;99.90;;;;;;471262;252;28932;-69
2021/09/04 10:17:35;;;;;;;4.50;4.10;;;20.80;99.90;;;;;;484548;245;28851;-70
2021/09/04 10:19:36;;;;;;;5.00;4.27;;;20.90;99.90;;;;;;471143;252;28962;-71
2021/09/04 10:21:38;;;;;;;5.17;4.67;;;21.00;99.90;;;;;;484559;245;29272;-71
2021/09/04 10:23:38;;;;;;;4.83;4.30;;;21.00;99.90;;;;;;471213;252;29414;-71
2021/09/04 10:25:40;;;;;;;4.73;4.23;;;21.00;99.90;;;;;;484553;245;29268;-71
2021/09/04 10:27:42;;;;;;;5.30;4.67;;;20.80;99.90;;;;;;471235;252;29335;-71
2021/09/04 10:29:42;;;;;;;4.97;4.40;;;20.80;99.90;;;;;;484538;245;28946;-72
2021/09/04 10:31:43;;;;;;;4.23;3.83;;;20.70;99.90;;;;;;471231;252;28882;-71